Time;durP1;ratioP1;P1;durP2;ratioP2;P2;SDS_P1;SDS_P2;PMS_P1;PMS_P2;Temp;Humidity;BMP_temperature;BMP_pressure;BME280_temperature;BME280_humidity;BME280_pressure;Samples;Min_cycle;Max_cycle;Signal;HPM_P1;HPM_P2
2023/12/29 00:01:43;;;;;;;15.90;6.68;;;-0.30;76.50;;;;;;5047244;28;20273;-80
2023/12/29 00:04:10;;;;;;;10.27;5.60;;;-0.40;76.60;;;;;;5048571;28;20428;-80
2023/12/29 00:06:39;;;;;;;10.52;5.80;;;-0.30;76.70;;;;;;5061053;28;20055;-81
2023/12/29 00:09:07;;;;;;;14.63;5.45;;;-0.30;76.70;;;;;;5050654;28;20570;-77
2023/12/29 00:11:34;;;;;;;7.45;5.30;;;-0.30;76.60;;;;;;5069145;28;20049;-79
2023/12/29 00:14:03;;;;;;;12.25;6.03;;;-0.20;76.60;;;;;;5065687;28;20488;-79
2023/12/29 00:16:32;;;;;;;13.93;5.25;;;-0.30;76.20;;;;;;5067643;28;20045;-79
2023/12/29 00:18:59;;;;;;;10.68;5.85;;;-0.30;76.50;;;;;;5049991;28;20052;-79
2023/12/29 00:21:26;;;;;;;9.00;5.07;;;-0.30;76.60;;;;;;5067014;28;20294;-79
2023/12/29 00:23:54;;;;;;;10.02;6.00;;;-0.30;76.50;;;;;;5067252;28;20052;-79
2023/12/29 00:26:21;;;;;;;11.00;5.43;;;-0.30;76.60;;;;;;5065499;28;20586;-80
2023/12/29 00:28:55;;;;;;;7.40;4.45;;;-0.20;76.60;;;;;;5067522;28;20053;-78
2023/12/29 00:31:22;;;;;;;7.38;4.88;;;-0.20;76.30;;;;;;5056771;28;20049;-80
2023/12/29 00:33:52;;;;;;;11.02;4.95;;;-0.20;76.40;;;;;;5060207;28;20061;-78
2023/12/29 00:36:21;;;;;;;9.73;4.80;;;-0.20;76.30;;;;;;5067607;28;20136;-79
2023/12/29 00:38:49;;;;;;;8.75;4.60;;;-0.20;76.10;;;;;;5049695;28;20063;-81
2023/12/29 00:41:17;;;;;;;8.02;4.63;;;-0.20;76.20;;;;;;5066820;28;20139;-80
2023/12/29 00:43:44;;;;;;;7.53;4.38;;;-0.20;76.20;;;;;;5048787;28;20126;-79
2023/12/29 00:46:15;;;;;;;11.43;4.97;;;-0.20;76.30;;;;;;5049416;28;20612;-79
2023/12/29 00:48:42;;;;;;;7.63;4.07;;;-0.20;76.20;;;;;;5046732;28;20057;-79
2023/12/29 00:51:11;;;;;;;8.38;4.40;;;-0.20;76.40;;;;;;5048830;28;20083;-79
2023/12/29 00:53:39;;;;;;;6.32;4.20;;;-0.20;76.40;;;;;;5033027;28;20156;-79
2023/12/29 00:56:11;;;;;;;6.13;4.30;;;-0.20;76.30;;;;;;5048020;28;20099;-78
2023/12/29 00:58:40;;;;;;;9.77;5.07;;;-0.20;76.20;;;;;;5066711;28;20193;-79
2023/12/29 01:01:11;;;;;;;10.40;4.22;;;-0.30;76.20;;;;;;5049229;28;20057;-79
2023/12/29 01:03:39;;;;;;;10.93;4.85;;;-0.20;76.30;;;;;;5049545;28;20121;-80
2023/12/29 01:06:08;;;;;;;17.42;6.72;;;-0.20;76.30;;;;;;5031466;28;20053;-80
2023/12/29 01:08:37;;;;;;;7.70;4.70;;;-0.20;76.30;;;;;;5062640;28;20501;-80
2023/12/29 01:11:05;;;;;;;7.30;4.32;;;-0.30;76.30;;;;;;5066378;28;20402;-78
2023/12/29 01:13:32;;;;;;;12.20;5.13;;;-0.30;76.20;;;;;;5066550;28;20056;-80
2023/12/29 01:16:00;;;;;;;8.13;4.10;;;-0.30;76.50;;;;;;5065776;28;20049;-81
2023/12/29 01:18:27;;;;;;;8.63;4.85;;;-0.30;76.50;;;;;;5064699;28;20048;-81
2023/12/29 01:20:55;;;;;;;7.22;4.53;;;-0.30;76.50;;;;;;5066948;28;20087;-80
2023/12/29 01:23:22;;;;;;;9.18;5.03;;;-0.30;76.40;;;;;;5045944;28;20167;-80
2023/12/29 01:25:51;;;;;;;9.23;4.63;;;-0.30;76.40;;;;;;5067131;28;20052;-78
2023/12/29 01:28:18;;;;;;;9.43;5.45;;;-0.30;76.30;;;;;;5048443;28;20493;-80
2023/12/29 01:30:46;;;;;;;9.68;4.30;;;-0.30;76.10;;;;;;5048654;28;20048;-80
2023/12/29 01:33:14;;;;;;;11.70;5.35;;;-0.30;76.00;;;;;;5054807;28;20139;-80
2023/12/29 01:35:41;;;;;;;8.43;5.15;;;-0.30;76.40;;;;;;5039268;28;20056;-81
2023/12/29 01:38:09;;;;;;;7.25;4.30;;;-0.20;76.40;;;;;;5044701;28;20147;-80
2023/12/29 01:40:45;;;;;;;10.73;5.20;;;-0.40;76.00;;;;;;5066393;28;20048;-79
2023/12/29 01:43:14;;;;;;;8.65;5.15;;;-0.40;76.40;;;;;;5058223;28;20067;-80
2023/12/29 01:45:42;;;;;;;6.93;4.53;;;-0.40;76.50;;;;;;5032995;28;20454;-80
2023/12/29 01:48:13;;;;;;;6.75;4.80;;;-0.40;76.70;;;;;;5048891;28;20057;-79
2023/12/29 01:50:42;;;;;;;7.50;4.50;;;-0.40;76.60;;;;;;5047430;28;20065;-81
2023/12/29 01:53:09;;;;;;;7.05;4.15;;;-0.40;76.60;;;;;;5044263;28;20360;-81
2023/12/29 01:55:38;;;;;;;9.02;4.78;;;-0.40;76.90;;;;;;5067353;28;20163;-81
2023/12/29 01:58:06;;;;;;;7.18;4.88;;;-0.30;76.50;;;;;;5049042;28;20099;-81
2023/12/29 02:00:36;;;;;;;5.93;4.35;;;-0.40;76.40;;;;;;5030426;28;20048;-81
2023/12/29 02:03:05;;;;;;;7.20;4.65;;;-0.40;76.60;;;;;;5048204;28;20432;-80
2023/12/29 02:05:36;;;;;;;10.93;5.07;;;-0.30;76.50;;;;;;5033199;28;20455;-81
2023/12/29 02:08:05;;;;;;;7.05;5.20;;;-0.20;76.30;;;;;;5066137;28;20060;-81
2023/12/29 02:10:33;;;;;;;11.07;5.68;;;-0.30;75.70;;;;;;5029127;28;20527;-79
2023/12/29 02:13:00;;;;;;;7.80;5.43;;;-0.30;76.20;;;;;;5047226;28;20134;-80
2023/12/29 02:15:28;;;;;;;11.85;6.35;;;-0.30;76.10;;;;;;5048983;28;20059;-80
2023/12/29 02:18:04;;;;;;;8.48;6.47;;;-0.40;76.10;;;;;;5028059;28;20052;-83
2023/12/29 02:20:31;;;;;;;11.02;6.40;;;-0.30;76.40;;;;;;5049637;28;20053;-82
2023/12/29 02:23:00;;;;;;;12.50;6.97;;;-0.30;76.30;;;;;;5068602;28;20071;-84
2023/12/29 02:25:29;;;;;;;13.18;6.90;;;-0.30;76.20;;;;;;5069706;28;20101;-82
2023/12/29 02:28:01;;;;;;;10.45;7.28;;;-0.30;76.40;;;;;;5036457;28;20151;-82
2023/12/29 02:30:36;;;;;;;11.95;7.30;;;-0.30;76.10;;;;;;5054152;28;20481;-83
2023/12/29 02:33:08;;;;;;;13.93;8.68;;;-0.30;76.40;;;;;;5036300;28;20052;-84
2023/12/29 02:35:42;;;;;;;11.85;7.80;;;-0.30;76.20;;;;;;5050830;28;20053;-84
2023/12/29 02:38:10;;;;;;;14.18;8.07;;;-0.30;76.40;;;;;;5031540;28;20072;-83
2023/12/29 02:40:39;;;;;;;14.63;8.25;;;-0.30;76.40;;;;;;5056276;28;20143;-82
2023/12/29 02:43:07;;;;;;;17.75;9.32;;;-0.30;76.50;;;;;;5036524;28;20053;-84
2023/12/29 02:45:34;;;;;;;15.63;9.65;;;-0.30;76.50;;;;;;5052212;28;20044;-84
2023/12/29 02:48:02;;;;;;;13.13;8.10;;;-0.40;76.20;;;;;;5034668;28;20060;-84
2023/12/29 02:50:29;;;;;;;21.52;9.88;;;-0.40;76.30;;;;;;5042460;28;20057;-85
2023/12/29 02:52:57;;;;;;;18.63;10.35;;;-0.30;76.30;;;;;;5052705;28;20138;-81
2023/12/29 02:55:25;;;;;;;17.58;9.25;;;-0.30;76.10;;;;;;5065810;28;20147;-85
2023/12/29 02:57:54;;;;;;;17.25;9.30;;;-0.30;76.00;;;;;;5056868;28;20139;-84
2023/12/29 03:00:23;;;;;;;18.25;9.60;;;-0.30;76.10;;;;;;5054334;28;20045;-83
2023/12/29 03:02:50;;;;;;;18.38;10.35;;;-0.30;76.10;;;;;;5065364;28;20071;-82
2023/12/29 03:05:18;;;;;;;19.08;9.57;;;-0.20;76.10;;;;;;5066341;28;20079;-83
2023/12/29 03:07:45;;;;;;;20.77;11.00;;;-0.20;75.80;;;;;;5048549;28;20592;-83
2023/12/29 03:10:13;;;;;;;17.63;9.05;;;-0.30;76.40;;;;;;5045797;28;20682;-85
2023/12/29 03:12:40;;;;;;;14.77;9.75;;;-0.30;75.90;;;;;;5066399;28;20053;-83
2023/12/29 03:15:10;;;;;;;19.20;10.68;;;-0.40;75.90;;;;;;5051553;28;20048;-83
2023/12/29 03:17:37;;;;;;;19.27;10.40;;;-0.30;76.40;;;;;;5066952;28;20048;-83
2023/12/29 03:20:07;;;;;;;19.42;10.25;;;-0.30;75.80;;;;;;5051022;28;20079;-83
2023/12/29 03:22:35;;;;;;;16.95;10.00;;;-0.20;76.10;;;;;;5069630;28;20060;-84
2023/12/29 03:25:02;;;;;;;18.10;9.98;;;-0.20;75.80;;;;;;5069376;28;20149;-82
2023/12/29 03:27:30;;;;;;;19.00;10.32;;;-0.30;75.80;;;;;;5049374;28;20052;-84
2023/12/29 03:29:58;;;;;;;19.23;10.77;;;-0.40;75.80;;;;;;5068694;28;20507;-83
2023/12/29 03:32:27;;;;;;;18.17;9.57;;;-0.40;76.20;;;;;;5067412;28;20052;-85
2023/12/29 03:34:54;;;;;;;17.50;10.38;;;-0.40;76.40;;;;;;5036159;28;20875;-82
2023/12/29 03:37:21;;;;;;;18.35;10.18;;;-0.30;76.20;;;;;;5070226;28;20113;-84
2023/12/29 03:39:49;;;;;;;21.08;11.32;;;-0.30;76.30;;;;;;5034029;28;20052;-84
2023/12/29 03:42:16;;;;;;;21.15;10.63;;;-0.40;76.30;;;;;;5067774;28;20082;-86
2023/12/29 03:44:44;;;;;;;21.50;10.85;;;-0.30;76.40;;;;;;5068128;28;20083;-85
2023/12/29 03:47:11;;;;;;;20.15;10.75;;;-0.30;76.40;;;;;;5049173;28;20151;-84
2023/12/29 03:49:40;;;;;;;16.27;9.65;;;-0.30;76.30;;;;;;5050181;28;20053;-84
2023/12/29 03:52:08;;;;;;;16.15;9.95;;;-0.30;76.20;;;;;;5051276;28;20532;-84
2023/12/29 03:54:35;;;;;;;16.13;9.88;;;-0.30;76.30;;;;;;5050660;28;20075;-85
2023/12/29 03:57:03;;;;;;;17.52;9.80;;;-0.30;76.30;;;;;;5067094;28;20052;-85
2023/12/29 03:59:52;;;;;;;15.57;9.05;;;-0.30;76.10;;;;;;5056603;28;20109;-81
2023/12/29 04:03:38;;;;;;;;;;;;;;;;;;;;;
2023/12/29 04:06:29;;;;;;;16.05;8.32;;;-0.30;76.40;;;;;;4959566;28;20497;-84
2023/12/29 04:09:01;;;;;;;17.52;9.02;;;-0.20;76.20;;;;;;5051320;28;20087;-82
2023/12/29 04:11:35;;;;;;;18.77;9.88;;;-0.30;76.00;;;;;;5045723;28;20059;-79
2023/12/29 04:14:12;;;;;;;;;;;;;;;;;;;;;
2023/12/29 04:17:13;;;;;;;;;;;;;;;;;;;;;
2023/12/29 04:21:31;;;;;;;;;;;;;;;;;;;;;
2023/12/29 04:24:14;;;;;;;16.10;8.48;;;-0.20;75.90;;;;;;4956738;28;20092;-86
2023/12/29 04:26:41;;;;;;;16.00;9.88;;;-0.20;75.90;;;;;;5050665;28;20064;-86
2023/12/29 04:29:09;;;;;;;16.30;9.23;;;-0.20;75.70;;;;;;5053111;28;20075;-87
2023/12/29 04:31:44;;;;;;;14.85;8.80;;;-0.30;75.80;;;;;;5066556;28;20060;-84
2023/12/29 04:34:15;;;;;;;17.55;9.38;;;-0.30;76.10;;;;;;5055311;28;20044;-81
2023/12/29 04:36:47;;;;;;;17.92;7.40;;;-0.20;75.70;;;;;;5035340;28;20152;-81
2023/12/29 04:39:33;;;;;;;14.20;8.68;;;-0.30;75.40;;;;;;5065663;28;20044;-80
2023/12/29 04:47:18;;;;;;;16.90;8.80;;;-0.40;76.30;;;;;;4947202;28;20068;-79
2023/12/29 04:53:58;;;;;;;13.27;8.43;;;-0.40;76.40;;;;;;4999418;28;20045;-85
2023/12/29 04:56:30;;;;;;;14.00;7.80;;;-0.40;76.00;;;;;;5037361;28;20075;-84
2023/12/29 04:58:59;;;;;;;12.13;7.57;;;-0.40;76.00;;;;;;5057429;28;20113;-83
2023/12/29 05:01:29;;;;;;;15.05;8.85;;;-0.40;76.00;;;;;;5067789;28;20059;-85
2023/12/29 05:03:57;;;;;;;13.95;8.15;;;-0.30;75.70;;;;;;5048082;28;20413;-87
2023/12/29 05:06:42;;;;;;;13.45;8.02;;;-0.30;76.20;;;;;;5065313;28;20512;-81
2023/12/29 05:09:54;;;;;;;;;;;;;;;;;;;;;
2023/12/29 05:13:36;;;;;;;;;;;;;;;;;;;;;
2023/12/29 05:21:21;;;;;;;10.00;6.25;;;-0.40;75.60;;;;;;4905259;29;20568;-81
2023/12/29 05:24:35;;;;;;;;;;;;;;;;;;;;;
2023/12/29 05:27:46;;;;;;;9.52;6.53;;;-0.40;75.70;;;;;;4975503;28;20140;-85
2023/12/29 05:34:01;;;;;;;12.00;7.55;;;-0.50;75.70;;;;;;4978996;28;20151;-86
2023/12/29 05:37:16;;;;;;;;;;;;;;;;;;;;;
2023/12/29 05:40:52;;;;;;;11.48;7.13;;;-0.40;75.70;;;;;;5030744;28;20130;-87
2023/12/29 05:47:58;;;;;;;8.52;5.47;;;-0.50;76.00;;;;;;4938964;28;20143;-83
2023/12/29 05:50:53;;;;;;;;;;;;;;;;;;;;;
2023/12/29 06:01:56;;;;;;;11.27;5.90;;;-0.50;76.30;;;;;;5056521;28;20132;-85
2023/12/29 06:04:50;;;;;;;11.75;6.35;;;-0.40;76.40;;;;;;5067711;28;20048;-85
2023/12/29 06:07:31;;;;;;;11.00;6.43;;;-0.40;75.90;;;;;;5068107;28;20113;-84
2023/12/29 06:10:01;;;;;;;11.68;5.95;;;-0.30;75.80;;;;;;5049981;28;20132;-81
2023/12/29 06:12:31;;;;;;;10.05;5.75;;;-0.40;75.80;;;;;;5052499;28;20075;-80
2023/12/29 06:14:59;;;;;;;9.93;6.15;;;-0.40;75.90;;;;;;5085478;28;20133;-80
2023/12/29 06:17:26;;;;;;;13.50;6.60;;;-0.40;75.80;;;;;;5063591;28;20044;-81
2023/12/29 06:19:55;;;;;;;12.27;6.10;;;-0.40;75.90;;;;;;5065743;28;20611;-81
2023/12/29 06:22:23;;;;;;;9.15;5.45;;;-0.40;75.90;;;;;;5060408;28;20504;-80
2023/12/29 06:24:50;;;;;;;10.75;4.82;;;-0.30;76.00;;;;;;5065792;28;20076;-80
2023/12/29 06:27:18;;;;;;;8.30;5.70;;;-0.30;75.90;;;;;;5067255;28;20061;-82
2023/12/29 06:29:46;;;;;;;12.15;5.60;;;-0.30;75.70;;;;;;5067365;28;20059;-82
2023/12/29 06:32:13;;;;;;;10.93;5.22;;;-0.30;75.70;;;;;;5067946;28;20060;-84
2023/12/29 06:34:42;;;;;;;9.35;5.78;;;-0.40;75.60;;;;;;5050858;28;20102;-84
2023/12/29 06:37:11;;;;;;;9.85;5.32;;;-0.30;75.90;;;;;;5070139;28;20497;-84
2023/12/29 06:39:39;;;;;;;8.48;5.53;;;-0.30;75.40;;;;;;5066835;28;20142;-83
2023/12/29 06:42:07;;;;;;;13.25;5.68;;;-0.30;75.60;;;;;;5088001;28;20094;-85
2023/12/29 06:44:35;;;;;;;6.05;4.53;;;-0.30;75.70;;;;;;5068260;28;20087;-84
2023/12/29 06:47:04;;;;;;;9.98;4.72;;;-0.20;75.50;;;;;;5070901;28;20142;-86
2023/12/29 06:49:32;;;;;;;6.88;4.80;;;-0.30;75.20;;;;;;5088782;28;20508;-84
2023/12/29 06:52:05;;;;;;;9.60;5.10;;;-0.30;75.30;;;;;;5093458;28;20205;-83
2023/12/29 06:54:35;;;;;;;8.75;4.70;;;-0.30;75.40;;;;;;5084827;28;20535;-84
2023/12/29 06:57:02;;;;;;;6.38;4.65;;;-0.20;75.60;;;;;;5074408;28;20064;-86
2023/12/29 06:59:29;;;;;;;11.43;4.63;;;-0.30;75.40;;;;;;5089069;28;20076;-83
2023/12/29 07:01:57;;;;;;;8.82;5.35;;;-0.30;75.30;;;;;;5095162;28;20052;-84
2023/12/29 07:04:24;;;;;;;9.18;5.25;;;-0.20;75.30;;;;;;5093106;28;20059;-82
2023/12/29 07:06:52;;;;;;;8.07;4.60;;;-0.20;75.40;;;;;;5079587;28;20115;-84
2023/12/29 07:09:19;;;;;;;10.20;6.00;;;-0.20;75.50;;;;;;5076879;28;20079;-85
2023/12/29 07:11:50;;;;;;;9.75;5.35;;;-0.30;75.40;;;;;;5062295;28;20135;-82
2023/12/29 07:14:18;;;;;;;9.32;5.47;;;-0.20;75.60;;;;;;5056628;28;20063;-83
2023/12/29 07:16:45;;;;;;;7.40;4.75;;;-0.10;75.20;;;;;;5090598;28;20139;-82
2023/12/29 07:19:13;;;;;;;11.50;5.63;;;0.00;75.50;;;;;;5080655;28;20510;-82
2023/12/29 07:21:41;;;;;;;10.88;5.50;;;-0.10;75.10;;;;;;5074986;28;20048;-80
2023/12/29 07:24:09;;;;;;;8.25;5.30;;;-0.10;75.20;;;;;;5076925;28;20048;-79
2023/12/29 07:26:40;;;;;;;6.32;4.70;;;-0.10;75.10;;;;;;5079731;28;20051;-80
2023/12/29 07:29:09;;;;;;;9.63;5.75;;;-0.10;75.10;;;;;;5078933;28;20062;-79
2023/12/29 07:31:41;;;;;;;10.50;5.63;;;-0.10;75.00;;;;;;5078346;28;20113;-81
2023/12/29 07:34:09;;;;;;;9.33;5.90;;;-0.10;75.10;;;;;;5078075;28;20063;-80
2023/12/29 07:36:43;;;;;;;9.15;5.80;;;-0.10;75.20;;;;;;5079376;28;20726;-80
2023/12/29 07:39:10;;;;;;;12.43;6.35;;;0.00;75.20;;;;;;5070251;28;20147;-80
2023/12/29 07:41:41;;;;;;;10.00;5.80;;;0.00;74.90;;;;;;5067474;28;20413;-81
2023/12/29 07:44:12;;;;;;;11.07;6.53;;;0.00;74.40;;;;;;5066468;28;20141;-79
2023/12/29 07:46:41;;;;;;;12.77;6.93;;;-0.10;74.70;;;;;;5077458;28;20084;-80
2023/12/29 07:49:08;;;;;;;11.88;6.60;;;-0.10;74.80;;;;;;5082329;28;20373;-80
2023/12/29 07:51:40;;;;;;;14.57;8.02;;;-0.10;75.10;;;;;;5067411;28;20458;-81
2023/12/29 07:54:08;;;;;;;12.70;6.70;;;-0.20;74.80;;;;;;5081677;28;20048;-80
2023/12/29 07:56:50;;;;;;;9.70;6.45;;;0.00;75.20;;;;;;5069085;28;20055;-82
2023/12/29 07:59:22;;;;;;;16.23;8.27;;;0.00;75.50;;;;;;5086127;28;20074;-80
2023/12/29 08:01:50;;;;;;;10.93;6.70;;;0.00;75.10;;;;;;5070327;28;20074;-82
2023/12/29 08:04:57;;;;;;;;;;;;;;;;;;;;;
2023/12/29 08:07:40;;;;;;;;;;;;;;;;;;;;;
2023/12/29 08:11:18;;;;;;;;;;;;;;;;;;;;;
2023/12/29 08:14:29;;;;;;;7.78;5.28;;;0.10;74.50;;;;;;4977245;28;20155;-80
2023/12/29 08:29:03;;;;;;;9.70;5.72;;;0.10;75.00;;;;;;4865869;28;20054;-79
2023/12/29 08:31:38;;;;;;;11.25;4.95;;;0.10;74.80;;;;;;5068634;28;20048;-81
2023/12/29 08:34:52;;;;;;;7.75;5.30;;;0.10;75.00;;;;;;5069865;28;20065;-81
2023/12/29 08:37:54;;;;;;;9.52;5.55;;;0.30;74.70;;;;;;4972845;28;20678;-81
2023/12/29 08:40:47;;;;;;;7.18;5.13;;;0.20;74.20;;;;;;5087205;28;20051;-83
2023/12/29 08:43:17;;;;;;;7.07;4.82;;;0.40;74.60;;;;;;5080904;28;20051;-79
2023/12/29 08:45:44;;;;;;;10.63;5.47;;;0.20;74.20;;;;;;5088466;28;20385;-79
2023/12/29 08:48:13;;;;;;;9.43;5.60;;;0.30;74.10;;;;;;5066911;28;20077;-79
2023/12/29 08:50:41;;;;;;;12.85;6.00;;;0.20;74.30;;;;;;5087352;28;20056;-80
2023/12/29 08:53:08;;;;;;;9.00;6.03;;;0.20;74.20;;;;;;5087685;28;20553;-80
2023/12/29 08:55:36;;;;;;;6.78;4.63;;;0.20;74.30;;;;;;5072573;28;20483;-79
2023/12/29 08:58:04;;;;;;;11.43;5.75;;;0.10;74.40;;;;;;5078785;28;20115;-78
2023/12/29 09:00:32;;;;;;;15.27;5.55;;;0.20;74.60;;;;;;5049930;28;20048;-79
2023/12/29 09:03:00;;;;;;;9.05;5.38;;;0.30;74.60;;;;;;5069174;28;20056;-79
2023/12/29 09:05:29;;;;;;;8.05;5.80;;;0.30;74.40;;;;;;5086349;28;20056;-79
2023/12/29 09:07:56;;;;;;;9.43;5.60;;;0.30;74.30;;;;;;5069945;28;20044;-78
2023/12/29 09:10:24;;;;;;;9.18;5.20;;;0.30;74.30;;;;;;5087701;28;20520;-80
2023/12/29 09:13:26;;;;;;;;;;;;;;;;;;;;;
2023/12/29 09:23:03;;;;;;;10.50;6.18;;;0.30;73.70;;;;;;5075190;27;20395;-82
2023/12/29 09:25:40;;;;;;;9.70;6.35;;;0.30;74.20;;;;;;5065971;28;20044;-81
2023/12/29 09:28:39;;;;;;;;;;;;;;;;;;;;;
2023/12/29 09:58:37;;;;;;;13.48;6.85;;;0.10;74.30;;;;;;4956582;28;20060;-82
2023/12/29 10:01:34;;;;;;;;;;;;;;;;;;;;;
2023/12/29 10:04:36;;;;;;;;;;;;;;;;;;;;;
2023/12/29 10:16:38;;;;;;;;;;;;;;;;;;;;;
2023/12/29 10:21:08;;;;;;;;;;;;;;;;;;;;;
2023/12/29 10:24:15;;;;;;;14.20;7.28;;;0.00;75.30;;;;;;4950116;28;20604;-84
2023/12/29 10:27:33;;;;;;;;;;;;;;;;;;;;;
2023/12/29 10:30:24;;;;;;;13.68;6.80;;;0.10;75.60;;;;;;5020460;28;20082;-82
2023/12/29 10:32:54;;;;;;;10.32;6.07;;;0.10;75.60;;;;;;5031403;28;20485;-83
2023/12/29 10:35:21;;;;;;;14.00;8.02;;;0.10;75.20;;;;;;5028667;28;20053;-84
2023/12/29 10:37:49;;;;;;;13.90;8.35;;;0.10;75.60;;;;;;5008664;28;20046;-85
2023/12/29 10:40:19;;;;;;;13.05;7.63;;;0.20;75.60;;;;;;5000590;28;20114;-85
2023/12/29 10:42:54;;;;;;;15.98;8.43;;;0.20;75.50;;;;;;5025679;28;20107;-86
2023/12/29 10:45:24;;;;;;;15.80;8.95;;;0.20;75.20;;;;;;5026868;28;20049;-87
2023/12/29 10:47:53;;;;;;;15.70;7.43;;;0.20;75.40;;;;;;5026522;28;20049;-85
2023/12/29 10:50:21;;;;;;;13.45;8.02;;;0.20;75.40;;;;;;5024481;28;20057;-85
2023/12/29 10:52:49;;;;;;;13.57;7.82;;;0.20;75.20;;;;;;5007130;28;20155;-84
2023/12/29 10:55:16;;;;;;;14.45;7.30;;;0.20;75.60;;;;;;5008063;28;20502;-82
2023/12/29 10:57:44;;;;;;;14.80;6.80;;;0.30;75.50;;;;;;5025213;28;20056;-84
2023/12/29 11:00:18;;;;;;;12.50;6.85;;;0.30;74.80;;;;;;5020369;28;20108;-83
2023/12/29 11:03:23;;;;;;;11.48;6.60;;;0.30;74.80;;;;;;5008722;28;20422;-85
2023/12/29 11:05:54;;;;;;;14.73;7.57;;;0.40;74.90;;;;;;5025756;28;20072;-84
2023/12/29 11:08:24;;;;;;;13.20;6.95;;;0.30;74.70;;;;;;5030023;28;20052;-84
2023/12/29 11:10:52;;;;;;;15.38;7.57;;;0.30;74.70;;;;;;5025546;28;20045;-83
2023/12/29 11:13:20;;;;;;;15.48;6.65;;;0.30;75.00;;;;;;5025904;28;20056;-85
2023/12/29 11:15:48;;;;;;;11.93;7.57;;;0.30;75.00;;;;;;5027033;28;20530;-83
2023/12/29 11:18:17;;;;;;;11.88;7.15;;;0.30;75.10;;;;;;5018685;28;20050;-82
2023/12/29 11:20:47;;;;;;;14.02;7.50;;;0.40;74.80;;;;;;4991773;28;20045;-83
2023/12/29 11:23:15;;;;;;;11.75;7.13;;;0.30;74.60;;;;;;5024642;28;20057;-85
2023/12/29 11:25:46;;;;;;;16.10;8.88;;;0.30;74.70;;;;;;5025176;28;20500;-87
2023/12/29 11:28:13;;;;;;;17.95;9.23;;;0.20;75.00;;;;;;5023727;28;20081;-84
2023/12/29 11:30:41;;;;;;;16.35;8.75;;;0.30;75.00;;;;;;5007462;28;20109;-82
2023/12/29 11:33:16;;;;;;;17.85;9.77;;;0.20;75.10;;;;;;5021950;28;20489;-81
2023/12/29 11:36:02;;;;;;;16.67;10.40;;;0.10;75.10;;;;;;5005008;28;20122;-86
2023/12/29 11:38:58;;;;;;;13.63;9.15;;;0.20;75.30;;;;;;4995587;28;20055;-83
2023/12/29 11:41:55;;;;;;;17.33;9.40;;;0.10;75.50;;;;;;5011444;28;20055;-85
2023/12/29 11:44:27;;;;;;;15.18;8.88;;;0.00;75.30;;;;;;4988568;28;20045;-83
2023/12/29 11:46:55;;;;;;;11.97;7.83;;;0.00;76.00;;;;;;5005530;28;20513;-83
2023/12/29 11:49:22;;;;;;;13.07;7.68;;;0.00;75.80;;;;;;5004212;28;20296;-84
2023/12/29 11:51:52;;;;;;;13.93;8.00;;;0.00;75.60;;;;;;5029901;28;20374;-86
2023/12/29 11:54:27;;;;;;;16.58;8.73;;;-0.10;75.70;;;;;;5005170;28;20050;-88
2023/12/29 11:56:56;;;;;;;14.88;8.10;;;0.00;75.90;;;;;;4989621;28;20112;-83
2023/12/29 11:59:25;;;;;;;16.10;9.27;;;0.00;76.90;;;;;;5008404;28;20049;-82
2023/12/29 12:01:56;;;;;;;17.48;8.55;;;0.00;75.90;;;;;;5024166;28;20124;-85
2023/12/29 12:04:40;;;;;;;18.95;9.60;;;-0.10;76.00;;;;;;4988896;28;20140;-83
2023/12/29 12:07:16;;;;;;;22.95;11.35;;;-0.10;76.10;;;;;;5003335;28;20057;-85
2023/12/29 12:10:33;;;;;;;17.52;9.45;;;0.00;76.30;;;;;;5017417;28;20041;-83
2023/12/29 12:13:02;;;;;;;11.70;7.82;;;0.00;76.10;;;;;;5021231;28;20057;-82
2023/12/29 12:15:35;;;;;;;12.00;8.63;;;0.00;76.20;;;;;;5006465;28;20156;-84
2023/12/29 12:18:23;;;;;;;17.98;8.98;;;0.00;76.70;;;;;;5004915;28;20080;-85
2023/12/29 13:39:29;;;;;;;14.60;6.97;;;-0.20;76.70;;;;;;6139432;23;20347;-84
2023/12/29 13:42:46;;;;;;;10.05;5.90;;;-0.30;76.60;;;;;;6164898;23;20021;-86
2023/12/29 13:55:47;;;;;;;;;;;;;;;;;;;;;
2023/12/29 14:15:31;;;;;;;11.05;5.93;;;-0.20;76.20;;;;;;6100382;23;20041;-84
2023/12/29 14:18:49;;;;;;;9.20;6.72;;;-0.20;76.40;;;;;;6181930;23;20020;-84
2023/12/29 14:21:46;;;;;;;12.10;6.38;;;-0.20;76.10;;;;;;6181432;23;20028;-86
2023/12/29 14:24:51;;;;;;;;;;;;;;;;;;;;;
2023/12/29 14:28:35;;;;;;;;;;;;;;;;;;;;;
2023/12/29 14:32:02;;;;;;;;;;;;;;;;;;;;;
2023/12/29 14:39:20;;;;;;;9.13;5.85;;;-0.20;76.20;;;;;;5846751;24;20029;-84
2023/12/29 14:41:52;;;;;;;11.77;5.40;;;-0.20;76.40;;;;;;5929467;23;20899;-84
2023/12/29 14:44:20;;;;;;;12.43;6.75;;;-0.30;76.30;;;;;;6125772;23;20557;-83
2023/12/29 14:46:48;;;;;;;10.75;5.57;;;-0.20;76.60;;;;;;6147893;23;20025;-82
2023/12/29 16:07:22;;;;;;;16.10;8.38;;;-0.30;76.90;;;;;;5893899;23;20024;-84
2023/12/29 16:10:38;;;;;;;24.70;12.73;;;-0.30;77.10;;;;;;6087485;23;20493;-84
2023/12/29 16:22:56;;;;;;;;;;;;;;;;;;;;;
2023/12/29 16:26:47;;;;;;;;;;;;;;;;;;;;;
2023/12/29 17:15:49;;;;;;;19.83;8.52;;;-0.40;77.60;;;;;;6208923;23;20035;-85
2023/12/29 17:29:26;;;;;;;17.52;8.10;;;-0.50;77.30;;;;;;6007645;23;20532;-89
2023/12/29 17:32:10;;;;;;;11.15;6.88;;;-0.50;77.40;;;;;;5931162;24;20520;-85
2023/12/29 17:34:45;;;;;;;16.80;7.35;;;-0.50;77.40;;;;;;5942374;24;20630;-89
2023/12/29 17:37:26;;;;;;;17.10;7.78;;;-0.50;77.30;;;;;;5962800;23;20032;-88
2023/12/29 17:40:45;;;;;;;18.50;9.90;;;-0.40;77.40;;;;;;5963704;23;20036;-87
2023/12/29 17:43:43;;;;;;;;;;;;;;;;;;;;;
2023/12/29 17:46:21;;;;;;;11.88;6.95;;;-0.40;77.30;;;;;;6089390;23;20407;-86
2023/12/29 17:48:55;;;;;;;12.50;6.43;;;-0.50;77.20;;;;;;6146726;23;20111;-85
2023/12/29 17:51:58;;;;;;;;;;;;;;;;;;;;;
2023/12/29 17:55:01;;;;;;;14.40;7.28;;;-0.40;77.60;;;;;;6012151;23;20248;-85
2023/12/29 17:57:36;;;;;;;13.95;6.55;;;-0.60;77.10;;;;;;6141171;23;20044;-86
2023/12/29 18:00:33;;;;;;;;;;;;;;;;;;;;;
2023/12/29 18:03:55;;;;;;;;;;;;;;;;;;;;;
2023/12/29 18:07:32;;;;;;;17.67;8.13;;;-0.50;77.60;;;;;;6145344;23;20025;-88
2023/12/29 18:10:08;;;;;;;12.77;6.82;;;-0.50;77.80;;;;;;6155409;23;20024;-85
2023/12/29 18:13:14;;;;;;;9.80;6.63;;;-0.50;77.50;;;;;;6172032;23;20052;-87
2023/12/29 18:16:43;;;;;;;15.88;6.65;;;-0.50;77.60;;;;;;6052063;23;20121;-86
2023/12/29 18:20:02;;;;;;;13.70;5.82;;;-0.40;77.40;;;;;;5893608;23;20158;-85
2023/12/29 18:23:07;;;;;;;;;;;;;;;;;;;;;
2023/12/29 18:26:26;;;;;;;;;;;;;;;;;;;;;
2023/12/29 18:30:17;;;;;;;;;;;;;;;;;;;;;
2023/12/29 18:54:33;;;;;;;;;;;;;;;;;;;;;
2023/12/29 18:57:33;;;;;;;8.32;4.43;;;-0.60;77.00;;;;;;5803398;24;20028;-82
2023/12/29 19:28:07;;;;;;;3.22;2.83;;;-0.90;77.60;;;;;;5867052;24;20040;-85
2023/12/29 19:31:43;;;;;;;;;;;;;;;;;;;;;
2023/12/29 19:47:37;;;;;;;5.15;3.55;;;-0.70;77.10;;;;;;5824096;24;20032;-88
2023/12/29 19:50:52;;;;;;;5.25;2.53;;;-0.80;77.30;;;;;;6041482;23;20021;-85
2023/12/29 20:34:07;;;;;;;2.75;2.42;;;-0.70;77.00;;;;;;4798340;29;20082;-85
2023/12/29 20:36:35;;;;;;;4.13;2.78;;;-0.70;76.80;;;;;;4865497;29;20125;-84
2023/12/29 20:39:51;;;;;;;;;;;;;;;;;;;;;
2023/12/29 20:43:47;;;;;;;;;;;;;;;;;;;;;
2023/12/29 20:47:39;;;;;;;;;;;;;;;;;;;;;
2023/12/29 20:51:13;;;;;;;;;;;;;;;;;;;;;
2023/12/29 20:54:34;;;;;;;;;;;;;;;;;;;;;
2023/12/29 20:57:45;;;;;;;;;;;;;;;;;;;;;
2023/12/29 21:00:44;;;;;;;2.33;2.13;;;-0.60;76.70;;;;;;4962387;28;20113;-87
2023/12/29 21:03:24;;;;;;;;;;;;;;;;;;;;;
2023/12/29 21:06:04;;;;;;;5.38;2.60;;;-0.60;76.40;;;;;;5083753;28;20582;-88
2023/12/29 21:08:36;;;;;;;3.38;2.50;;;-0.60;76.10;;;;;;5083188;28;20147;-87
2023/12/29 21:11:04;;;;;;;2.60;2.00;;;-0.60;76.20;;;;;;5098920;28;20519;-88
2023/12/29 21:13:32;;;;;;;3.03;2.45;;;-0.70;76.40;;;;;;5098482;28;20512;-89
2023/12/29 21:15:59;;;;;;;3.25;2.28;;;-0.60;76.50;;;;;;5084360;28;20804;-87
2023/12/29 21:18:34;;;;;;;2.13;1.88;;;-0.60;76.50;;;;;;5070160;28;20060;-86
2023/12/29 21:21:09;;;;;;;2.40;2.20;;;-0.60;76.20;;;;;;5060479;28;20463;-88
2023/12/29 21:24:08;;;;;;;;;;;;;;;;;;;;;
2023/12/29 21:27:14;;;;;;;3.08;2.03;;;-0.70;76.60;;;;;;5039375;28;20087;-86
2023/12/29 21:30:10;;;;;;;1.98;1.63;;;-0.70;76.50;;;;;;5043019;28;20563;-87
2023/12/29 21:32:46;;;;;;;2.33;1.73;;;-0.70;76.60;;;;;;5046678;28;20144;-85
2023/12/29 21:36:04;;;;;;;;;;;;;;;;;;;;;
2023/12/29 21:38:39;;;;;;;4.18;2.10;;;-0.60;76.60;;;;;;4999647;28;20041;-85
2023/12/29 22:37:28;;;;;;;3.40;2.72;;;-0.60;75.30;;;;;;4910941;28;20064;-82
2023/12/29 22:39:56;;;;;;;5.05;2.40;;;-0.60;75.20;;;;;;5058412;28;20587;-83
2023/12/29 22:42:24;;;;;;;4.93;2.92;;;-0.60;75.00;;;;;;5063548;28;20064;-83
2023/12/29 22:44:52;;;;;;;5.78;3.67;;;-0.70;75.00;;;;;;5050452;28;20516;-82
2023/12/29 22:47:21;;;;;;;4.65;2.92;;;-0.70;75.00;;;;;;5058718;28;20056;-83
2023/12/29 22:49:50;;;;;;;5.10;3.45;;;-0.60;75.30;;;;;;5065531;28;20125;-83
2023/12/29 22:52:18;;;;;;;3.65;2.83;;;-0.60;75.00;;;;;;5048913;28;20118;-84
2023/12/29 22:54:47;;;;;;;5.47;2.72;;;-0.50;75.20;;;;;;5048748;28;20052;-83
2023/12/29 22:57:16;;;;;;;6.22;3.38;;;-0.50;75.10;;;;;;5047790;28;20048;-84
2023/12/29 22:59:48;;;;;;;6.28;3.45;;;-0.50;74.90;;;;;;5048788;28;20441;-84
2023/12/29 23:02:21;;;;;;;4.55;2.75;;;-0.50;74.60;;;;;;5067543;28;20057;-84